createdAt,value
2022-08-11T00:01:35.545Z,100930.88
2022-08-11T00:04:39.858Z,100934.56
2022-08-11T00:07:45.460Z,100933.72
2022-08-11T00:10:55.335Z,100925.69
2022-08-11T00:13:59.607Z,100929.78
2022-08-11T00:17:06.514Z,100917.72
2022-08-11T00:20:18.061Z,100914.75
2022-08-11T00:23:21.254Z,100914.84
2022-08-11T00:26:25.047Z,100919.81
2022-08-11T00:29:27.976Z,100913.56
2022-08-11T00:32:31.140Z,100915.97
2022-08-11T00:35:53.888Z,100907.44
2022-08-11T00:39:05.733Z,100914.03
2022-08-11T00:42:24.291Z,100914.69
2022-08-11T00:45:38.961Z,100917.38
2022-08-11T00:48:53.691Z,100909.19
2022-08-11T00:52:34.974Z,100911.56
2022-08-11T00:55:47.162Z,100909.88
2022-08-11T00:59:35.284Z,100908.44
2022-08-11T01:03:18.227Z,100913.81
2022-08-11T01:06:58.442Z,100918.53
2022-08-11T01:10:58.393Z,100917.31
2022-08-11T01:14:33.852Z,100915.09
2022-08-11T01:17:50.360Z,100915.84
2022-08-11T01:21:05.362Z,100908.84
2022-08-11T01:24:33.665Z,100915.53
2022-08-11T01:27:55.352Z,100903.22
2022-08-11T01:31:01.413Z,100907.34
2022-08-11T01:34:55.496Z,100909.47
2022-08-11T01:38:26.484Z,100902.41
2022-08-11T01:42:29.261Z,100903.03
2022-08-11T01:45:44.044Z,100905.78
2022-08-11T01:50:05.160Z,100899.03
2022-08-11T01:53:22.521Z,100898.09
2022-08-11T01:56:38.445Z,100890.66
2022-08-11T01:59:49.394Z,100895.91
2022-08-11T02:03:07.444Z,100897.81
2022-08-11T02:06:41.277Z,100884.87
2022-08-11T02:10:36.395Z,100886.47
2022-08-11T02:14:11.493Z,100895.72
2022-08-11T02:17:37.525Z,100884.09
2022-08-11T02:21:18.324Z,100887.47
2022-08-11T02:24:29.302Z,100895.13
2022-08-11T02:28:04.235Z,100891.66
2022-08-11T02:32:28.893Z,100888.91
2022-08-11T02:35:19.068Z,100885.22
2022-08-11T02:38:46.264Z,100876.88
2022-08-11T02:42:33.442Z,100874.59
2022-08-11T02:45:48.376Z,100877.78
2022-08-11T02:49:22.368Z,100869.16
2022-08-11T02:52:45.406Z,100871.47
2022-08-11T02:56:14.031Z,100860.44
2022-08-11T02:59:45.750Z,100872.91
2022-08-11T03:03:06.482Z,100867.34
2022-08-11T03:06:19.623Z,100870.00
2022-08-11T03:09:40.494Z,100870.31
2022-08-11T03:13:10.354Z,100869.47
2022-08-11T03:16:46.745Z,100874.91
2022-08-11T03:20:15.421Z,100868.94
2022-08-11T03:23:48.139Z,100873.69
2022-08-11T03:27:07.543Z,100871.81
2022-08-11T03:30:13.545Z,100873.63
2022-08-11T03:33:34.331Z,100871.84
2022-08-11T03:37:15.632Z,100872.94
2022-08-11T03:40:37.722Z,100876.97
2022-08-11T03:44:07.759Z,100877.16
2022-08-11T03:47:55.020Z,100875.59
2022-08-11T03:51:08.479Z,100876.47
2022-08-11T03:54:29.605Z,100881.06
2022-08-11T03:57:44.667Z,100883.38
2022-08-11T04:01:06.030Z,100878.00
2022-08-11T04:04:50.704Z,100882.16
2022-08-11T04:08:15.482Z,100889.75
2022-08-11T04:11:37.645Z,100888.91
2022-08-11T04:15:32.356Z,100883.06
2022-08-11T04:19:15.248Z,100885.81
2022-08-11T04:22:44.298Z,100882.84
2022-08-11T04:26:19.023Z,100884.00
2022-08-11T04:29:35.995Z,100886.72
2022-08-11T04:32:59.780Z,100891.78
2022-08-11T04:36:41.699Z,100891.53
2022-08-11T04:40:12.455Z,100897.72
2022-08-11T04:43:25.108Z,100892.13
2022-08-11T04:48:03.958Z,100900.31
2022-08-11T04:51:42.727Z,100893.69
2022-08-11T04:55:07.226Z,100895.75
2022-08-11T04:58:45.567Z,100898.41
2022-08-11T05:02:25.694Z,100902.00
2022-08-11T05:05:57.599Z,100897.63
2022-08-11T05:09:26.092Z,100896.69
2022-08-11T05:12:32.774Z,100899.09
2022-08-11T05:16:06.112Z,100901.50
2022-08-11T05:19:35.792Z,100904.50
2022-08-11T05:23:08.425Z,100899.13
2022-08-11T05:26:47.611Z,100908.34
2022-08-11T05:30:20.663Z,100916.25
2022-08-11T05:33:54.085Z,100913.41
2022-08-11T05:37:29.162Z,100918.28
2022-08-11T05:40:53.302Z,100916.91
2022-08-11T05:44:23.193Z,100913.44
2022-08-11T05:47:45.779Z,100922.25
2022-08-11T05:51:16.594Z,100915.09
2022-08-11T05:54:38.712Z,100914.94
2022-08-11T05:57:50.791Z,100918.66
2022-08-11T06:00:55.799Z,100913.47
2022-08-11T06:04:15.773Z,100910.41
2022-08-11T06:07:18.809Z,100908.66
2022-08-11T06:10:37.308Z,100911.25
2022-08-11T06:13:45.945Z,100915.72
2022-08-11T06:16:51.066Z,100906.72
2022-08-11T06:20:07.407Z,100911.03
2022-08-11T06:23:11.352Z,100915.06
2022-08-11T06:26:15.489Z,100910.00
2022-08-11T06:29:19.241Z,100906.66
2022-08-11T06:32:26.132Z,100903.41
2022-08-11T06:35:34.937Z,100906.66
2022-08-11T06:39:21.205Z,100904.87
2022-08-11T06:42:43.805Z,100901.28
2022-08-11T06:45:49.247Z,100906.00
2022-08-11T06:48:53.941Z,100901.13
2022-08-11T06:52:01.757Z,100898.75
2022-08-11T06:55:57.115Z,100907.84
2022-08-11T06:58:57.271Z,100907.69
2022-08-11T07:02:15.281Z,100898.06
2022-08-11T07:05:26.407Z,100899.44
2022-08-11T07:08:53.936Z,100891.34
2022-08-11T07:12:56.438Z,100896.66
2022-08-11T07:16:11.464Z,100904.44
2022-08-11T07:19:42.231Z,100892.09
2022-08-11T07:23:13.699Z,100888.37
2022-08-11T07:26:38.481Z,100886.25
2022-08-11T07:29:45.057Z,100885.44
2022-08-11T07:32:54.048Z,100891.13
2022-08-11T07:36:00.128Z,100886.47
2022-08-11T07:39:03.138Z,100889.66
2022-08-11T07:42:15.074Z,100896.34
2022-08-11T07:45:37.096Z,100897.19
2022-08-11T07:49:00.546Z,100896.88
2022-08-11T07:52:21.844Z,100889.16
2022-08-11T07:55:49.150Z,100885.31
2022-08-11T07:59:09.612Z,100883.38
2022-08-11T08:02:31.974Z,100863.13
2022-08-11T08:05:54.005Z,100873.34
2022-08-11T08:09:16.476Z,100867.28
2022-08-11T08:12:43.167Z,100879.12
2022-08-11T08:16:04.988Z,100870.16
2022-08-11T08:19:07.927Z,100872.44
2022-08-11T08:22:38.141Z,100864.53
2022-08-11T08:25:41.307Z,100874.37
2022-08-11T08:28:46.568Z,100874.22
2022-08-11T08:31:50.017Z,100874.28
2022-08-11T08:34:55.246Z,100863.38
2022-08-11T08:37:59.871Z,100861.13
2022-08-11T08:41:02.995Z,100863.41
2022-08-11T08:47:43.265Z,100849.69
2022-08-11T08:51:54.866Z,100844.91
2022-08-11T08:54:58.135Z,100844.91
2022-08-11T08:58:02.340Z,100834.34
2022-08-11T09:01:06.034Z,100844.06
2022-08-11T09:04:12.363Z,100840.94
2022-08-11T09:07:18.259Z,100836.03
2022-08-11T09:10:24.520Z,100823.56
2022-08-11T09:13:27.630Z,100824.66
2022-08-11T09:16:30.956Z,100830.41
2022-08-11T09:19:34.053Z,100809.25
2022-08-11T09:23:35.215Z,100809.63
2022-08-11T09:26:41.139Z,100814.22
2022-08-11T09:29:45.601Z,100806.06
2022-08-11T09:32:48.326Z,100807.53
2022-08-11T09:35:52.891Z,100807.31
2022-08-11T09:39:15.619Z,100805.31
2022-08-11T09:42:23.507Z,100808.72
2022-08-11T09:45:27.817Z,100810.66
2022-08-11T09:48:46.180Z,100812.59
2022-08-11T09:52:02.006Z,100808.47
2022-08-11T09:55:11.530Z,100801.66
2022-08-11T09:58:42.991Z,100797.31
2022-08-11T10:01:47.311Z,100802.34
2022-08-11T10:05:15.624Z,100798.81
2022-08-11T10:08:20.959Z,100803.75
2022-08-11T10:11:25.135Z,100795.00
2022-08-11T10:14:48.513Z,100786.72
2022-08-11T10:18:15.980Z,100779.53
2022-08-11T10:21:30.678Z,100776.50
2022-08-11T10:24:52.301Z,100776.88
2022-08-11T10:28:28.805Z,100770.34
2022-08-11T10:31:57.697Z,100768.78
2022-08-11T10:35:07.300Z,100762.50
2022-08-11T10:38:13.275Z,100762.22
2022-08-11T10:41:34.402Z,100745.16
2022-08-11T10:44:45.578Z,100748.94
2022-08-11T10:47:49.571Z,100753.97
2022-08-11T10:51:13.029Z,100747.44
2022-08-11T10:54:34.350Z,100751.50
2022-08-11T10:58:04.932Z,100742.78
2022-08-11T11:01:10.614Z,100737.81
2022-08-11T11:04:19.059Z,100740.72
2022-08-11T11:07:24.932Z,100728.25
2022-08-11T11:10:28.152Z,100723.47
2022-08-11T11:13:54.921Z,100718.37
2022-08-11T11:17:16.820Z,100718.63
2022-08-11T11:20:36.335Z,100706.22
2022-08-11T11:23:50.042Z,100700.06
2022-08-11T11:27:05.684Z,100704.38
2022-08-11T11:30:12.364Z,100694.31
2022-08-11T11:33:25.458Z,100695.53
2022-08-11T11:36:47.757Z,100695.63
2022-08-11T11:39:51.006Z,100695.88
2022-08-11T11:42:56.811Z,100696.00
2022-08-11T11:46:00.086Z,100686.25
2022-08-11T11:49:09.078Z,100692.91
2022-08-11T11:52:21.812Z,100682.81
2022-08-11T11:55:26.457Z,100680.31
2022-08-11T11:58:48.364Z,100679.47
2022-08-11T12:01:52.870Z,100685.19
2022-08-11T12:04:56.385Z,100674.03
2022-08-11T12:08:17.998Z,100680.59
2022-08-11T12:11:42.252Z,100675.00
2022-08-11T12:14:46.510Z,100663.53
2022-08-11T12:17:52.801Z,100659.19
2022-08-11T12:20:55.868Z,100661.03
2022-08-11T12:24:21.099Z,100658.00
2022-08-11T12:27:25.968Z,100662.09
2022-08-11T12:30:29.634Z,100657.13
2022-08-11T12:33:35.077Z,100655.06
2022-08-11T12:36:46.344Z,100646.94
2022-08-11T12:40:15.767Z,100649.12
2022-08-11T12:43:56.968Z,100639.09
2022-08-11T12:47:01.967Z,100638.06
2022-08-11T12:50:29.129Z,100634.53
2022-08-11T12:53:34.605Z,100632.00
2022-08-11T12:56:59.579Z,100634.00
2022-08-11T13:00:23.566Z,100626.09
2022-08-11T13:03:52.517Z,100620.94
2022-08-11T13:06:59.667Z,100620.66
2022-08-11T13:10:05.498Z,100625.34
2022-08-11T13:13:54.580Z,100611.22
2022-08-11T13:16:54.612Z,100616.50
2022-08-11T13:19:59.124Z,100617.13
2022-08-11T13:23:03.534Z,100611.50
2022-08-11T13:26:10.792Z,100608.34
2022-08-11T13:29:14.990Z,100612.34
2022-08-11T13:32:20.314Z,100609.87
2022-08-11T13:35:24.286Z,100614.53
2022-08-11T13:38:28.498Z,100603.97
2022-08-11T13:41:39.086Z,100596.22
2022-08-11T13:44:42.950Z,100598.84
2022-08-11T13:47:46.772Z,100604.13
2022-08-11T13:51:07.875Z,100591.50
2022-08-11T13:54:21.476Z,100597.13
2022-08-11T13:58:08.939Z,100590.66
2022-08-11T14:00:52.771Z,100583.97
2022-08-11T14:04:30.134Z,100588.97
2022-08-11T14:07:34.487Z,100593.22
2022-08-11T14:10:39.028Z,100583.31
2022-08-11T14:13:48.415Z,100575.22
2022-08-11T14:16:56.651Z,100569.91
2022-08-11T14:20:37.878Z,100577.47
2022-08-11T14:23:35.591Z,100571.44
2022-08-11T14:26:42.211Z,100569.16
2022-08-11T14:29:49.040Z,100569.72
2022-08-11T14:32:55.377Z,100568.94
2022-08-11T14:35:59.169Z,100571.94
2022-08-11T14:39:13.007Z,100563.78
2022-08-11T14:42:37.425Z,100560.09
2022-08-11T14:45:59.429Z,100559.22
2022-08-11T14:49:02.719Z,100563.53
2022-08-11T14:52:09.776Z,100567.97
2022-08-11T14:55:32.225Z,100569.03
2022-08-11T14:58:35.195Z,100563.72
2022-08-11T15:02:17.186Z,100567.31
2022-08-11T15:05:20.576Z,100563.53
2022-08-11T15:08:46.509Z,100558.03
2022-08-11T15:12:07.777Z,100564.25
2022-08-11T15:15:50.221Z,100562.31
2022-08-11T15:18:53.043Z,100563.50
2022-08-11T15:22:14.598Z,100564.44
2022-08-11T15:25:17.570Z,100561.94
2022-08-11T15:28:41.064Z,100567.16
2022-08-11T15:32:02.651Z,100556.47
2022-08-11T15:35:25.678Z,100564.94
2022-08-11T15:38:42.774Z,100549.63
2022-08-11T15:42:23.166Z,100551.06
2022-08-11T15:45:45.172Z,100548.59
2022-08-11T15:48:56.049Z,100551.47
2022-08-11T15:52:18.026Z,100550.19
2022-08-11T15:55:23.542Z,100551.50
2022-08-11T15:59:10.633Z,100543.88
2022-08-11T16:02:34.401Z,100550.22
2022-08-11T16:05:46.485Z,100544.34
2022-08-11T16:08:51.405Z,100545.91
2022-08-11T16:11:56.906Z,100546.97
2022-08-11T16:15:25.421Z,100539.84
2022-08-11T16:18:42.290Z,100535.19
2022-08-11T16:21:45.604Z,100537.50
2022-08-11T16:27:01.924Z,100533.50
2022-08-11T16:28:15.327Z,100535.50
2022-08-11T16:31:21.891Z,100540.50
2022-08-11T16:34:43.125Z,100536.53
2022-08-11T16:38:05.635Z,100536.47
2022-08-11T16:41:11.827Z,100534.16
2022-08-11T16:44:37.710Z,100534.16
2022-08-11T16:48:01.890Z,100524.19
2022-08-11T16:51:07.750Z,100532.44
2022-08-11T16:54:10.955Z,100534.91
2022-08-11T16:57:37.084Z,100543.72
2022-08-11T17:00:41.420Z,100539.69
2022-08-11T17:04:10.410Z,100540.31
2022-08-11T17:07:42.434Z,100544.31
2022-08-11T17:11:16.969Z,100557.22
2022-08-11T17:14:35.452Z,100560.50
2022-08-11T17:17:39.979Z,100569.56
2022-08-11T17:20:44.321Z,100573.56
2022-08-11T17:23:51.841Z,100581.69
2022-08-11T17:26:59.132Z,100578.59
2022-08-11T17:30:06.142Z,100574.41
2022-08-11T17:33:29.207Z,100589.09
2022-08-11T17:36:33.330Z,100589.69
2022-08-11T17:39:36.382Z,100588.63
2022-08-11T17:43:00.274Z,100594.09
2022-08-11T17:46:21.633Z,100600.50
2022-08-11T17:49:26.436Z,100599.41
2022-08-11T17:52:49.121Z,100607.09
2022-08-11T17:56:11.485Z,100622.56
2022-08-11T17:59:34.504Z,100620.69
2022-08-11T18:03:01.464Z,100615.53
2022-08-11T18:06:06.171Z,100622.47
2022-08-11T18:09:32.858Z,100611.75
2022-08-11T18:12:54.829Z,100620.94
2022-08-11T18:16:15.844Z,100614.94
2022-08-11T18:19:37.280Z,100627.19
2022-08-11T18:23:01.688Z,100617.84
2022-08-11T18:26:25.008Z,100615.19
2022-08-11T18:29:49.290Z,100627.56
2022-08-11T18:36:58.209Z,100632.72
2022-08-11T18:40:26.299Z,100637.19
2022-08-11T18:43:51.149Z,100633.28
2022-08-11T18:47:14.120Z,100634.16
2022-08-11T18:50:39.802Z,100631.31
2022-08-11T18:54:05.800Z,100638.25
2022-08-11T18:57:27.943Z,100640.87
2022-08-11T19:00:56.371Z,100642.38
2022-08-11T19:04:20.709Z,100641.09
2022-08-11T19:07:44.239Z,100638.97
2022-08-11T19:11:07.349Z,100644.66
2022-08-11T19:14:30.363Z,100642.00
2022-08-11T19:17:54.409Z,100635.62
2022-08-11T19:21:18.482Z,100640.34
2022-08-11T19:24:41.417Z,100646.00
2022-08-11T19:28:07.101Z,100650.34
2022-08-11T19:31:29.823Z,100643.38
2022-08-11T19:34:52.216Z,100648.22
2022-08-11T19:38:14.709Z,100644.22
2022-08-11T19:41:56.914Z,100635.62
2022-08-11T19:45:23.121Z,100636.72
2022-08-11T19:48:45.598Z,100629.12
2022-08-11T19:52:08.515Z,100632.91
2022-08-11T19:55:31.027Z,100635.56
2022-08-11T19:58:57.868Z,100639.94
2022-08-11T20:02:19.415Z,100635.62
2022-08-11T20:05:40.937Z,100641.28
2022-08-11T20:09:22.677Z,100648.13
2022-08-11T20:12:46.116Z,100644.56
2022-08-11T20:16:10.136Z,100647.72
2022-08-11T20:19:56.170Z,100634.59
2022-08-11T20:23:19.191Z,100640.22
2022-08-11T20:26:41.122Z,100640.16
2022-08-11T20:30:02.915Z,100638.53
2022-08-11T20:33:26.832Z,100640.84
2022-08-11T20:36:52.456Z,100637.09
2022-08-11T20:40:17.512Z,100634.25
2022-08-11T20:44:06.984Z,100633.97
2022-08-11T20:47:59.588Z,100640.50
2022-08-11T20:51:17.472Z,100639.47
2022-08-11T20:54:43.591Z,100637.94
2022-08-11T20:58:14.411Z,100638.09
2022-08-11T21:01:42.092Z,100644.84
2022-08-11T21:05:03.698Z,100654.81
2022-08-11T21:08:26.790Z,100652.50
2022-08-11T21:11:50.964Z,100654.09
2022-08-11T21:15:14.753Z,100650.03
2022-08-11T21:18:59.692Z,100658.06
2022-08-11T21:22:22.081Z,100660.22
2022-08-11T21:25:54.445Z,100668.34
2022-08-11T21:29:19.462Z,100666.81
2022-08-11T21:32:42.813Z,100666.91
2022-08-11T21:36:04.196Z,100669.66
2022-08-11T21:39:29.117Z,100674.47
2022-08-11T21:42:53.875Z,100680.69
2022-08-11T21:46:16.990Z,100676.75
2022-08-11T21:49:41.566Z,100677.47
2022-08-11T21:53:02.922Z,100677.94
2022-08-11T21:56:27.404Z,100682.28
2022-08-11T22:00:03.197Z,100692.44
2022-08-11T22:03:41.070Z,100681.53
2022-08-11T22:07:12.418Z,100692.19
2022-08-11T22:10:41.440Z,100687.41
2022-08-11T22:14:08.067Z,100688.34
2022-08-11T22:17:29.335Z,100683.44
2022-08-11T22:20:52.060Z,100677.22
2022-08-11T22:24:18.336Z,100685.88
2022-08-11T22:27:52.112Z,100682.13
2022-08-11T22:31:15.952Z,100677.44
2022-08-11T22:34:51.200Z,100676.38
2022-08-11T22:38:16.710Z,100668.22
2022-08-11T22:41:40.740Z,100665.38
2022-08-11T22:45:01.580Z,100666.91
2022-08-11T22:48:25.983Z,100657.37
2022-08-11T22:51:47.779Z,100654.59
2022-08-11T22:55:11.145Z,100651.59
2022-08-11T22:58:33.952Z,100662.75
2022-08-11T23:01:57.892Z,100660.47
2022-08-11T23:05:20.138Z,100663.69
2022-08-11T23:08:41.876Z,100664.63
2022-08-11T23:12:06.687Z,100655.66
2022-08-11T23:15:31.749Z,100655.66
2022-08-11T23:18:56.278Z,100652.91
2022-08-11T23:22:22.021Z,100650.25
2022-08-11T23:25:45.574Z,100652.41
2022-08-11T23:29:07.515Z,100646.78
2022-08-11T23:32:28.933Z,100649.41
2022-08-11T23:35:57.956Z,100639.50
2022-08-11T23:39:22.951Z,100635.19
2022-08-11T23:42:46.211Z,100633.03
2022-08-11T23:46:07.744Z,100628.81
2022-08-11T23:49:29.690Z,100629.44
2022-08-11T23:52:52.693Z,100628.03
2022-08-11T23:56:14.741Z,100630.88
2022-08-11T23:59:36.156Z,100628.50
